KPIA/PIA METAR and TAF weather

Enter ICAO airport designator
Station Type Date Time Source
KPIA METAR 2021/09/27 06:54 UTC NOAA

KPIA 270654Z 20012KT 10SM CLR 20/14 A2984 RMK AO2 SLP099 T02000139


Station Type Date Time Source
KPIA Decoded METAR 2021/09/27 06:54 UTC NOAA

GREATER PEORIA REGIONAL AIRPORT , IL, United States (KPIA) 40-40N 89-41W 205M
Sep 27, 2021 - 02:54 AM EDT / 2021.09.27 0654 UTC
Wind: from the SSW (200 degrees) at 14 MPH (12 KT):0
Visibility: 10 mile(s):0
Sky conditions: clear
Temperature: 68.0 F (20.0 C)
Dew Point: 57.0 F (13.9 C)
Relative Humidity: 67%
Pressure (altimeter): 29.84 in. Hg (1010 hPa)
ob: KPIA 270654Z 20012KT 10SM CLR 20/14 A2984 RMK AO2 SLP099 T02000139
cycle: 7

Station Type Date Time Source
KPIA TAF 2021/09/27 06:22 UTC NOAA

TAF KPIA 270520Z 2706/2806 20010KT P6SM SKC WS015/21045KT
FM271400 23018G31KT P6SM SKC
FM271800 25012G19KT P6SM SKC
FM280000 24007KT P6SM SKC

Example: see airport list